FCYMT VYBM-VYMK

Flight info

Callsign FCYMT
Flight time 0h 20m
Altitude 2000
Route DCT
Aircraft PC12/L-SDFGRWY/S

Departure

Time 2026-04-22 19:43
Airport Banmaw Airport (VYBM)

Arrival

Time 2026-04-22 20:04
Airport Myitkyina Airport (VYMK)
Time Latitude Longitude Altitude Speed Heading
2026-04-22 19:33 24.26802 97.24832 381 ft 0 kts 239°
2026-04-22 19:38 24.26791 97.24837 386 ft 7 kts 139°
2026-04-22 19:39 24.26726 97.24902 379 ft 17 kts 140°
2026-04-22 19:39 24.26690 97.24935 378 ft 5 kts 139°
2026-04-22 19:39 24.26635 97.24980 378 ft 13 kts 148°
2026-04-22 19:39 24.26590 97.25009 381 ft 10 kts 150°
2026-04-22 19:40 24.26523 97.25049 382 ft 8 kts 152°
2026-04-22 19:40 24.26466 97.25092 383 ft 12 kts 145°
2026-04-22 19:40 24.26391 97.25143 384 ft 13 kts 149°
2026-04-22 19:40 24.26326 97.25188 386 ft 4 kts 142°
2026-04-22 19:41 24.26319 97.25194 387 ft 4 kts 141°
2026-04-22 19:41 24.26273 97.25229 386 ft 8 kts 153°
2026-04-22 19:41 24.26233 97.25257 387 ft 2 kts 91°
2026-04-22 19:41 24.26235 97.25262 386 ft 0 kts 58°
2026-04-22 19:42 24.26256 97.25275 390 ft 11 kts 359°
2026-04-22 19:42 24.26376 97.25195 389 ft 29 kts 324°
2026-04-22 19:42 24.26684 97.24995 381 ft 82 kts 326°
2026-04-22 19:43 24.28209 97.24403 959 ft 144 kts 355°
2026-04-22 19:43 24.29299 97.24496 1339 ft 168 kts
2026-04-22 19:43 24.30510 97.24647 1715 ft 183 kts
2026-04-22 19:44 24.31882 97.24769 1828 ft 219 kts
2026-04-22 19:44 24.33448 97.24937 1816 ft 228 kts
2026-04-22 19:44 24.34995 97.24967 2019 ft 222 kts 353°
2026-04-22 19:44 24.36429 97.24538 2542 ft 207 kts 329°
2026-04-22 19:45 24.37514 97.23438 2586 ft 221 kts 303°
2026-04-22 19:45 24.38285 97.21914 2243 ft 236 kts 294°
2026-04-22 19:45 24.38848 97.20257 2296 ft 225 kts 284°
2026-04-22 19:45 24.39020 97.18600 2279 ft 221 kts 272°
2026-04-22 19:46 24.39322 97.16956 2369 ft 217 kts 285°
2026-04-22 19:46 24.39840 97.15349 2059 ft 227 kts 291°
2026-04-22 19:46 24.40544 97.13808 1973 ft 223 kts 297°
2026-04-22 19:46 24.41515 97.12480 1838 ft 223 kts 319°
2026-04-22 19:47 24.42920 97.11846 1970 ft 228 kts 347°
2026-04-22 19:47 24.44541 97.11660 1993 ft 230 kts 355°
2026-04-22 19:47 24.46123 97.11577 2131 ft 227 kts 353°
2026-04-22 19:47 24.47705 97.11345 1877 ft 232 kts 350°
2026-04-22 19:48 24.49279 97.11189 1795 ft 229 kts 354°
2026-04-22 19:48 24.50876 97.11087 1684 ft 229 kts 355°
2026-04-22 19:48 24.52436 97.11293 1907 ft 224 kts
2026-04-22 19:48 24.53986 97.11696 1697 ft 231 kts 10°
2026-04-22 19:49 24.55564 97.11896 1711 ft 228 kts 360°
2026-04-22 19:49 24.57117 97.11747 1921 ft 219 kts 352°
2026-04-22 19:49 24.58625 97.11554 2085 ft 223 kts 353°
2026-04-22 19:49 24.60203 97.11389 1918 ft 230 kts 357°
2026-04-22 19:50 24.61783 97.11396 1996 ft 225 kts 359°
2026-04-22 19:50 24.63331 97.11246 2099 ft 223 kts 343°
2026-04-22 19:50 24.64702 97.10490 2235 ft 218 kts 328°
2026-04-22 19:50 24.66011 97.09654 2451 ft 220 kts 328°
2026-04-22 19:51 24.67327 97.08761 2489 ft 227 kts 330°
2026-04-22 19:51 24.68750 97.08110 2783 ft 220 kts 340°
2026-04-22 19:51 24.70233 97.07517 2555 ft 233 kts 338°
2026-04-22 19:51 24.71715 97.06789 2469 ft 232 kts 335°
2026-04-22 19:52 24.73211 97.06165 2460 ft 229 kts 341°
2026-04-22 19:52 24.74721 97.05715 2571 ft 225 kts 349°
2026-04-22 19:52 24.76234 97.05518 2895 ft 221 kts 354°
2026-04-22 19:52 24.77786 97.05482 2789 ft 228 kts
2026-04-22 19:53 24.79388 97.05670 2692 ft 230 kts
2026-04-22 19:53 24.80952 97.06023 2582 ft 230 kts 14°
2026-04-22 19:53 24.82409 97.06639 2859 ft 225 kts 26°
2026-04-22 19:53 24.83822 97.07479 2825 ft 236 kts 28°
2026-04-22 19:54 24.85243 97.08390 2869 ft 238 kts 30°
2026-04-22 19:54 24.86664 97.09348 2774 ft 242 kts 32°
2026-04-22 19:54 24.88113 97.10314 2622 ft 243 kts 29°
2026-04-22 19:54 24.89557 97.11244 2666 ft 238 kts 31°
2026-04-22 19:55 24.90896 97.12259 2907 ft 231 kts 38°
2026-04-22 19:55 24.92102 97.13455 3035 ft 237 kts 43°
2026-04-22 19:55 24.93302 97.14719 3132 ft 237 kts 43°
2026-04-22 19:55 24.94469 97.16029 3141 ft 241 kts 46°
2026-04-22 19:56 24.95626 97.17403 2948 ft 246 kts 47°
2026-04-22 19:56 24.96805 97.18750 2891 ft 242 kts 45°
2026-04-22 19:56 24.97994 97.20050 2865 ft 241 kts 42°
2026-04-22 19:56 24.99261 97.21275 2714 ft 243 kts 40°
2026-04-22 19:57 25.00576 97.22463 2408 ft 247 kts 36°
2026-04-22 19:57 25.02033 97.23408 2336 ft 239 kts 24°
2026-04-22 19:57 25.03588 97.23969 2492 ft 231 kts 13°
2026-04-22 19:57 25.05146 97.24294 2622 ft 233 kts
2026-04-22 19:58 25.06777 97.24564 2501 ft 238 kts
2026-04-22 19:58 25.08403 97.24825 2562 ft 235 kts
2026-04-22 19:58 25.10039 97.25025 2496 ft 235 kts
2026-04-22 19:58 25.11644 97.25006 2782 ft 226 kts
2026-04-22 19:59 25.13206 97.25133 3123 ft 225 kts
2026-04-22 20:00 25.22872 97.27761 2916 ft 233 kts
2026-04-22 20:00 25.24472 97.28006 3021 ft 236 kts
2026-04-22 20:01 25.26112 97.28375 2882 ft 238 kts 13°
2026-04-22 20:01 25.27616 97.28776 2973 ft 214 kts 13°
2026-04-22 20:01 25.29047 97.29183 2962 ft 213 kts 14°
2026-04-22 20:01 25.30475 97.29639 2860 ft 214 kts 17°
2026-04-22 20:02 25.31860 97.30230 2656 ft 204 kts 24°
2026-04-22 20:02 25.33005 97.30911 2204 ft 178 kts 31°
2026-04-22 20:02 25.33960 97.31645 1910 ft 156 kts 36°
2026-04-22 20:02 25.34774 97.32318 1735 ft 138 kts 36°
2026-04-22 20:03 25.35533 97.32983 1367 ft 141 kts 38°
2026-04-22 20:03 25.36276 97.33614 1077 ft 126 kts 36°
2026-04-22 20:03 25.36906 97.34147 829 ft 102 kts 36°
2026-04-22 20:03 25.37453 97.34612 596 ft 98 kts 33°
2026-04-22 20:04 25.37965 97.35020 484 ft 81 kts 34°
2026-04-22 20:04 25.38293 97.35278 484 ft 36 kts 35°
2026-04-22 20:04 25.38380 97.35393 481 ft 19 kts 81°
2026-04-22 20:04 25.38321 97.35428 481 ft 13 kts 168°
2026-04-22 20:05 25.38239 97.35412 476 ft 13 kts 214°
2026-04-22 20:05 25.38213 97.35394 483 ft 8 kts 212°
2026-04-22 20:05 25.38184 97.35406 483 ft 1 kts 28°